createdAt,value
2022-08-17T00:02:25.455Z,61.20
2022-08-17T00:05:33.391Z,61.40
2022-08-17T00:08:40.176Z,61.30
2022-08-17T00:12:42.111Z,61.40
2022-08-17T00:15:13.675Z,61.40
2022-08-17T00:19:03.834Z,61.40
2022-08-17T00:22:32.857Z,61.40
2022-08-17T00:25:20.454Z,61.40
2022-08-17T00:28:25.463Z,61.30
2022-08-17T00:31:30.808Z,61.10
2022-08-17T00:34:38.344Z,61.20
2022-08-17T00:37:43.395Z,61.20
2022-08-17T00:40:51.792Z,61.10
2022-08-17T00:43:59.375Z,61.10
2022-08-17T00:47:04.374Z,61.10
2022-08-17T00:50:15.227Z,61.10
2022-08-17T00:53:20.347Z,61.20
2022-08-17T00:56:31.203Z,61.00
2022-08-17T00:59:40.353Z,61.10
2022-08-17T01:02:48.051Z,61.10
2022-08-17T01:05:59.913Z,61.00
2022-08-17T01:09:07.018Z,61.10
2022-08-17T01:12:13.884Z,61.00
2022-08-17T01:15:19.340Z,61.00
2022-08-17T01:18:24.463Z,61.00
2022-08-17T01:21:49.650Z,61.10
2022-08-17T01:25:06.199Z,61.10
2022-08-17T01:28:11.382Z,61.20
2022-08-17T01:31:40.051Z,61.10
2022-08-17T01:34:50.498Z,61.20
2022-08-17T01:37:56.085Z,61.20
2022-08-17T01:41:06.631Z,61.30
2022-08-17T01:44:12.029Z,62.10
2022-08-17T01:47:17.055Z,61.40
2022-08-17T01:50:26.234Z,61.50
2022-08-17T01:53:35.447Z,61.70
2022-08-17T01:56:47.321Z,61.80
2022-08-17T01:59:52.791Z,62.00
2022-08-17T02:02:57.804Z,61.90
2022-08-17T02:06:03.002Z,62.20
2022-08-17T02:09:16.419Z,62.20
2022-08-17T02:12:38.778Z,62.30
2022-08-17T02:15:44.982Z,62.40
2022-08-17T02:18:50.139Z,62.60
2022-08-17T02:21:56.839Z,62.80
2022-08-17T02:25:03.039Z,63.00
2022-08-17T02:28:11.002Z,63.30
2022-08-17T02:31:16.107Z,63.60
2022-08-17T02:34:21.446Z,63.70
2022-08-17T02:37:26.723Z,64.00
2022-08-17T02:40:36.406Z,64.10
2022-08-17T02:43:44.406Z,64.30
2022-08-17T02:46:49.366Z,64.50
2022-08-17T02:49:55.740Z,64.60
2022-08-17T02:53:02.538Z,64.80
2022-08-17T02:56:08.056Z,65.00
2022-08-17T02:59:15.630Z,65.10
2022-08-17T03:02:20.667Z,65.30
2022-08-17T03:05:29.564Z,65.30
2022-08-17T03:08:34.784Z,65.50
2022-08-17T03:11:39.871Z,65.60
2022-08-17T03:14:47.464Z,65.70
2022-08-17T03:17:52.443Z,65.80
2022-08-17T03:20:59.779Z,65.80
2022-08-17T03:24:08.993Z,66.00
2022-08-17T03:27:14.251Z,66.10
2022-08-17T03:30:22.495Z,66.20
2022-08-17T03:33:27.517Z,66.20
2022-08-17T03:36:32.477Z,66.30
2022-08-17T03:39:41.404Z,66.40
2022-08-17T03:42:47.386Z,66.40
2022-08-17T03:46:26.936Z,66.50
2022-08-17T03:49:44.866Z,66.60
2022-08-17T03:53:04.868Z,66.50
2022-08-17T03:56:22.746Z,66.60
2022-08-17T03:59:27.747Z,66.60
2022-08-17T04:02:36.847Z,66.70
2022-08-17T04:05:41.942Z,66.90
2022-08-17T04:08:46.930Z,66.90
2022-08-17T04:11:52.161Z,67.00
2022-08-17T04:14:57.195Z,67.10
2022-08-17T04:18:04.734Z,67.10
2022-08-17T04:21:12.138Z,67.30
2022-08-17T04:24:17.164Z,67.40
2022-08-17T04:27:23.959Z,67.30
2022-08-17T04:30:32.170Z,67.40
2022-08-17T04:33:42.671Z,67.50
2022-08-17T04:36:50.301Z,67.60
2022-08-17T04:40:07.966Z,67.60
2022-08-17T04:43:15.968Z,67.70
2022-08-17T04:46:27.272Z,67.70
2022-08-17T04:49:35.309Z,67.80
2022-08-17T04:52:48.487Z,67.90
2022-08-17T04:55:55.468Z,68.10
2022-08-17T04:59:02.613Z,67.90
2022-08-17T05:02:07.767Z,68.00
2022-08-17T05:05:15.468Z,68.10
2022-08-17T05:08:22.180Z,68.10
2022-08-17T05:11:28.854Z,68.20
2022-08-17T05:14:34.043Z,68.20
2022-08-17T05:17:39.435Z,68.40
2022-08-17T05:20:47.638Z,68.40
2022-08-17T05:23:58.536Z,68.50
2022-08-17T05:27:06.496Z,68.50
2022-08-17T05:30:12.573Z,68.50
2022-08-17T05:33:20.339Z,68.60
2022-08-17T05:36:42.985Z,68.60
2022-08-17T05:39:48.849Z,68.70
2022-08-17T05:42:54.317Z,68.60
2022-08-17T05:46:05.634Z,68.70
2022-08-17T05:49:11.490Z,68.80
2022-08-17T05:52:29.206Z,68.80
2022-08-17T05:55:44.747Z,69.00
2022-08-17T05:59:00.391Z,68.90
2022-08-17T06:02:12.160Z,69.00
2022-08-17T06:05:33.277Z,69.00
2022-08-17T06:08:51.617Z,69.10
2022-08-17T06:12:03.594Z,69.10
2022-08-17T06:15:26.264Z,69.00
2022-08-17T06:18:46.602Z,69.10
2022-08-17T06:21:56.413Z,68.90
2022-08-17T06:25:10.204Z,69.00
2022-08-17T06:28:20.233Z,69.10
2022-08-17T06:31:29.388Z,69.00
2022-08-17T06:34:36.088Z,69.10
2022-08-17T06:38:06.273Z,69.20
2022-08-17T06:41:20.173Z,69.30
2022-08-17T06:44:42.189Z,69.20
2022-08-17T06:48:00.870Z,69.30
2022-08-17T06:51:12.274Z,69.20
2022-08-17T06:54:25.884Z,69.20
2022-08-17T06:57:35.259Z,69.20
2022-08-17T07:00:46.068Z,69.10
2022-08-17T07:03:56.470Z,69.20
2022-08-17T07:07:24.843Z,69.10
2022-08-17T07:10:31.823Z,69.00
2022-08-17T07:13:50.516Z,69.00
2022-08-17T07:16:59.470Z,68.90
2022-08-17T07:20:08.595Z,68.70
2022-08-17T07:23:25.049Z,68.60
2022-08-17T07:26:30.280Z,68.50
2022-08-17T07:29:42.607Z,68.20
2022-08-17T07:32:50.822Z,68.20
2022-08-17T07:35:57.397Z,68.00
2022-08-17T07:39:03.697Z,67.80
2022-08-17T07:42:08.931Z,67.60
2022-08-17T07:45:30.082Z,67.50
2022-08-17T07:48:40.559Z,67.30
2022-08-17T07:52:00.460Z,67.20
2022-08-17T07:55:32.929Z,67.00
2022-08-17T07:58:42.237Z,66.80
2022-08-17T08:02:06.317Z,66.60
2022-08-17T08:05:31.739Z,66.50
2022-08-17T08:08:54.897Z,66.40
2022-08-17T08:12:00.348Z,66.30
2022-08-17T08:15:15.479Z,66.20
2022-08-17T08:18:54.107Z,66.20
2022-08-17T08:22:05.693Z,66.10
2022-08-17T08:25:53.612Z,66.10
2022-08-17T08:29:10.975Z,66.10
2022-08-17T08:32:22.223Z,66.10
2022-08-17T08:35:34.563Z,66.00
2022-08-17T08:38:52.189Z,66.00
2022-08-17T08:42:07.642Z,66.70
2022-08-17T08:45:19.895Z,66.00
2022-08-17T08:48:57.808Z,66.00
2022-08-17T08:52:09.910Z,66.10
2022-08-17T08:55:23.115Z,66.00
2022-08-17T08:58:41.396Z,66.10
2022-08-17T09:01:56.535Z,66.10
2022-08-17T09:05:15.681Z,66.10
2022-08-17T09:08:31.879Z,66.00
2022-08-17T09:12:02.393Z,65.80
2022-08-17T09:15:17.843Z,65.70
2022-08-17T09:18:59.895Z,65.50
2022-08-17T09:21:55.288Z,65.50
2022-08-17T09:25:13.699Z,65.30
2022-08-17T09:28:24.022Z,65.20
2022-08-17T09:31:46.424Z,65.10
2022-08-17T09:34:56.843Z,65.00
2022-08-17T09:38:07.986Z,64.90
2022-08-17T09:41:20.966Z,65.40
2022-08-17T09:44:33.665Z,64.70
2022-08-17T09:47:45.543Z,64.60
2022-08-17T09:51:05.761Z,64.50
2022-08-17T09:54:38.539Z,64.30
2022-08-17T09:58:00.602Z,64.20
2022-08-17T10:01:17.920Z,64.10
2022-08-17T10:04:38.440Z,64.20
2022-08-17T10:07:52.625Z,64.10
2022-08-17T10:11:13.598Z,64.10
2022-08-17T10:14:37.268Z,64.20
2022-08-17T10:18:07.747Z,64.00
2022-08-17T10:21:28.260Z,63.90
2022-08-17T10:25:21.507Z,63.80
2022-08-17T10:28:19.774Z,63.80
2022-08-17T10:31:34.740Z,63.80
2022-08-17T10:35:06.832Z,63.60
2022-08-17T10:38:31.937Z,63.30
2022-08-17T10:41:43.163Z,63.30
2022-08-17T10:44:51.972Z,63.20
2022-08-17T10:48:06.317Z,63.10
2022-08-17T10:51:13.783Z,62.90
2022-08-17T10:54:37.839Z,62.90
2022-08-17T10:57:45.479Z,62.80
2022-08-17T11:01:12.771Z,62.70
2022-08-17T11:04:40.516Z,62.60
2022-08-17T11:08:05.515Z,62.60
2022-08-17T11:11:27.533Z,62.50
2022-08-17T11:14:50.084Z,62.50
2022-08-17T11:18:17.878Z,62.50
2022-08-17T11:22:04.455Z,62.40
2022-08-17T11:25:17.974Z,62.40
2022-08-17T11:28:28.112Z,62.40
2022-08-17T11:31:38.872Z,62.40
2022-08-17T11:34:46.204Z,62.30
2022-08-17T11:38:03.825Z,62.30
2022-08-17T11:41:24.030Z,62.30
2022-08-17T11:44:40.563Z,62.30
2022-08-17T11:48:26.513Z,62.30
2022-08-17T11:52:12.519Z,62.30
2022-08-17T11:56:02.522Z,62.30
2022-08-17T11:59:46.053Z,62.20
2022-08-17T12:03:11.293Z,62.20
2022-08-17T12:06:43.922Z,62.20
2022-08-17T12:09:53.660Z,62.10
2022-08-17T12:12:59.008Z,62.00
2022-08-17T12:16:09.412Z,62.00
2022-08-17T12:19:23.842Z,61.90
2022-08-17T12:22:33.550Z,61.90
2022-08-17T12:25:44.193Z,61.90
2022-08-17T12:28:51.062Z,61.80
2022-08-17T12:31:59.462Z,61.80
2022-08-17T12:35:07.090Z,61.60
2022-08-17T12:38:26.721Z,61.70
2022-08-17T12:41:41.353Z,61.60
2022-08-17T12:44:50.382Z,61.60
2022-08-17T12:48:09.143Z,61.60
2022-08-17T12:51:15.635Z,61.60
2022-08-17T12:54:28.337Z,61.70
2022-08-17T12:57:36.268Z,61.70
2022-08-17T13:00:47.610Z,61.80
2022-08-17T13:03:59.742Z,62.10
2022-08-17T13:07:05.377Z,62.30
2022-08-17T13:10:27.423Z,62.30
2022-08-17T13:13:37.342Z,62.40
2022-08-17T13:16:42.298Z,62.50
2022-08-17T13:19:54.072Z,62.50
2022-08-17T13:23:01.239Z,63.40
2022-08-17T13:26:09.470Z,62.70
2022-08-17T13:29:24.128Z,62.90
2022-08-17T13:32:39.933Z,63.10
2022-08-17T13:35:52.289Z,63.20
2022-08-17T13:39:10.027Z,63.20
2022-08-17T13:42:33.779Z,63.10
2022-08-17T13:46:11.160Z,63.10
2022-08-17T13:49:24.656Z,63.10
2022-08-17T13:52:52.107Z,63.20
2022-08-17T13:56:02.032Z,63.20
2022-08-17T13:59:09.943Z,63.40
2022-08-17T14:02:16.237Z,63.40
2022-08-17T14:05:21.464Z,63.50
2022-08-17T14:08:30.854Z,63.50
2022-08-17T14:11:35.830Z,63.60
2022-08-17T14:14:43.068Z,63.70
2022-08-17T14:17:49.189Z,63.80
2022-08-17T14:20:56.793Z,63.90
2022-08-17T14:24:04.321Z,64.10
2022-08-17T14:27:10.746Z,64.20
2022-08-17T14:30:17.484Z,64.30
2022-08-17T14:33:22.791Z,64.40
2022-08-17T14:36:27.822Z,64.50
2022-08-17T14:39:35.433Z,64.50
2022-08-17T14:42:42.184Z,64.60
2022-08-17T14:45:47.367Z,64.70
2022-08-17T14:48:57.210Z,64.80
2022-08-17T14:52:03.221Z,64.90
2022-08-17T14:55:13.209Z,65.10
2022-08-17T14:58:18.398Z,65.30
2022-08-17T15:01:24.646Z,65.40
2022-08-17T15:04:30.027Z,65.60
2022-08-17T15:07:34.986Z,65.90
2022-08-17T15:10:42.518Z,66.20
2022-08-17T15:13:52.884Z,66.50
2022-08-17T15:16:58.494Z,66.60
2022-08-17T15:20:03.562Z,66.80
2022-08-17T15:23:09.693Z,67.00
2022-08-17T15:26:17.374Z,67.30
2022-08-17T15:29:22.701Z,67.40
2022-08-17T15:32:29.486Z,67.60
2022-08-17T15:35:37.451Z,67.70
2022-08-17T15:38:44.392Z,67.90
2022-08-17T15:41:58.030Z,67.90
2022-08-17T15:45:08.580Z,68.10
2022-08-17T15:48:14.307Z,68.20
2022-08-17T15:51:22.524Z,68.20
2022-08-17T15:54:31.796Z,68.20
2022-08-17T15:57:42.765Z,68.20
2022-08-17T16:00:53.548Z,68.30
2022-08-17T16:04:29.920Z,68.30
2022-08-17T16:07:36.437Z,68.30
2022-08-17T16:10:41.474Z,68.40
2022-08-17T16:13:54.765Z,68.40
2022-08-17T16:17:01.803Z,68.50
2022-08-17T16:20:08.553Z,68.60
2022-08-17T16:23:18.460Z,68.70
2022-08-17T16:26:25.646Z,68.70
2022-08-17T16:29:33.531Z,68.80
2022-08-17T16:32:38.959Z,69.00
2022-08-17T16:35:44.623Z,69.20
2022-08-17T16:38:50.035Z,69.20
2022-08-17T16:41:55.730Z,69.20
2022-08-17T16:45:07.355Z,69.40
2022-08-17T16:48:12.727Z,69.40
2022-08-17T16:51:17.664Z,69.30
2022-08-17T16:54:23.021Z,69.20
2022-08-17T16:57:28.325Z,69.10
2022-08-17T17:00:36.277Z,69.20
2022-08-17T17:03:45.412Z,69.20
2022-08-17T17:07:01.321Z,69.20
2022-08-17T17:10:10.482Z,69.30
2022-08-17T17:13:23.723Z,69.10
2022-08-17T17:16:38.127Z,69.10
2022-08-17T17:19:53.731Z,69.20
2022-08-17T17:23:07.071Z,69.10
2022-08-17T17:26:38.072Z,69.20
2022-08-17T17:29:54.565Z,69.20
2022-08-17T17:33:07.601Z,69.20
2022-08-17T17:36:27.154Z,69.30
2022-08-17T17:39:41.693Z,69.40
2022-08-17T17:42:51.117Z,69.30
2022-08-17T17:46:26.668Z,69.30
2022-08-17T17:49:28.604Z,69.40
2022-08-17T17:52:41.291Z,69.40
2022-08-17T17:56:04.271Z,69.50
2022-08-17T17:59:14.636Z,69.60
2022-08-17T18:02:47.344Z,69.40
2022-08-17T18:06:21.286Z,69.60
2022-08-17T18:09:36.690Z,69.70
2022-08-17T18:12:48.525Z,69.60
2022-08-17T18:15:56.408Z,69.70
2022-08-17T18:19:03.012Z,69.70
2022-08-17T18:22:14.580Z,69.70
2022-08-17T18:25:43.624Z,69.80
2022-08-17T18:28:53.522Z,69.90
2022-08-17T18:32:31.356Z,70.20
2022-08-17T18:35:36.584Z,70.00
2022-08-17T18:38:46.410Z,69.70
2022-08-17T18:41:54.097Z,69.90
2022-08-17T18:44:59.437Z,69.90
2022-08-17T18:48:05.111Z,69.90
2022-08-17T18:51:42.156Z,70.00
2022-08-17T18:55:11.638Z,70.30
2022-08-17T18:58:20.861Z,70.20
2022-08-17T19:01:42.052Z,70.10
2022-08-17T19:05:13.405Z,70.20
2022-08-17T19:08:25.042Z,70.40
2022-08-17T19:11:36.895Z,70.30
2022-08-17T19:14:42.963Z,70.40
2022-08-17T19:17:53.785Z,70.30
2022-08-17T19:21:05.327Z,70.50
2022-08-17T19:24:19.556Z,70.50
2022-08-17T19:27:41.792Z,70.50
2022-08-17T19:31:05.892Z,70.50
2022-08-17T19:34:11.890Z,70.50
2022-08-17T19:37:30.040Z,70.50
2022-08-17T19:40:52.933Z,70.80
2022-08-17T19:44:19.279Z,70.80
2022-08-17T19:47:53.773Z,71.00
2022-08-17T19:51:04.239Z,70.80
2022-08-17T19:54:18.799Z,70.80
2022-08-17T19:57:44.215Z,71.00
2022-08-17T20:00:54.065Z,71.30
2022-08-17T20:04:06.047Z,71.20
2022-08-17T20:07:15.070Z,71.20
2022-08-17T20:10:28.902Z,71.30
2022-08-17T20:13:39.587Z,71.30
2022-08-17T20:16:47.334Z,71.40
2022-08-17T20:19:55.831Z,71.40
2022-08-17T20:23:06.799Z,71.50
2022-08-17T20:26:20.254Z,71.60
2022-08-17T20:29:40.093Z,71.70
2022-08-17T20:32:57.270Z,71.80
2022-08-17T20:36:20.370Z,71.90
2022-08-17T20:39:36.071Z,72.10
2022-08-17T20:42:41.083Z,72.00
2022-08-17T20:46:15.520Z,71.80
2022-08-17T20:49:30.794Z,72.20
2022-08-17T20:52:52.088Z,72.10
2022-08-17T20:55:57.202Z,72.20
2022-08-17T20:59:02.822Z,72.10
2022-08-17T21:02:18.928Z,72.10
2022-08-17T21:05:35.493Z,72.30
2022-08-17T21:08:46.382Z,72.40
2022-08-17T21:12:04.409Z,72.30
2022-08-17T21:15:19.169Z,72.40
2022-08-17T21:18:38.624Z,72.40
2022-08-17T21:21:54.718Z,72.50
2022-08-17T21:25:09.555Z,72.60
2022-08-17T21:28:21.540Z,72.70
2022-08-17T21:31:36.299Z,72.70
2022-08-17T21:34:44.266Z,72.90
2022-08-17T21:37:55.541Z,72.70
2022-08-17T21:41:01.270Z,72.90
2022-08-17T21:44:09.156Z,72.90
2022-08-17T21:47:24.625Z,73.00
2022-08-17T21:50:30.062Z,73.20
2022-08-17T21:53:45.902Z,73.10
2022-08-17T21:56:51.711Z,73.30
2022-08-17T21:59:59.865Z,73.70
2022-08-17T22:03:07.302Z,73.20
2022-08-17T22:06:27.140Z,73.20
2022-08-17T22:09:36.941Z,73.40
2022-08-17T22:12:42.678Z,73.30
2022-08-17T22:15:50.560Z,73.30
2022-08-17T22:18:57.660Z,73.40
2022-08-17T22:22:06.293Z,73.40
2022-08-17T22:25:24.171Z,73.50
2022-08-17T22:28:45.773Z,73.70
2022-08-17T22:31:58.505Z,73.70
2022-08-17T22:35:29.885Z,73.70
2022-08-17T22:38:35.207Z,73.80
2022-08-17T22:41:46.207Z,73.60
2022-08-17T22:44:53.816Z,73.80
2022-08-17T22:48:00.296Z,73.80
2022-08-17T22:51:12.859Z,73.90
2022-08-17T22:54:33.947Z,74.00
2022-08-17T22:58:02.681Z,74.00
2022-08-17T23:01:26.533Z,74.30
2022-08-17T23:04:36.537Z,74.50
2022-08-17T23:07:42.412Z,74.30
2022-08-17T23:10:48.459Z,74.30
2022-08-17T23:13:56.725Z,74.40
2022-08-17T23:17:02.276Z,74.50
2022-08-17T23:20:09.193Z,74.60
2022-08-17T23:23:18.802Z,74.60
2022-08-17T23:26:27.752Z,74.80
2022-08-17T23:29:35.354Z,74.80
2022-08-17T23:32:42.976Z,74.90
2022-08-17T23:35:58.860Z,74.90
2022-08-17T23:39:03.986Z,74.90
2022-08-17T23:42:11.400Z,75.00
2022-08-17T23:45:19.124Z,75.10
2022-08-17T23:48:35.244Z,75.20
2022-08-17T23:51:44.151Z,75.10
2022-08-17T23:54:50.267Z,75.20
2022-08-17T23:57:55.207Z,75.20
